Terminal Aerodrome Forecast
Issued by NWS

Home | Current Version | Previous Version | Text Only | Print | Product List | Glossary On
Versions: 1 2 3 4 5 6 7 8 9 10 11 12 13 14 15 16 17 18 19 20 21 22 23 24 25 26 27
000
FTUS46 KLOX 260303 AAA
TAFLAX
TAF AMD
KLAX 260303Z 2603/2706 28009KT P6SM SKC
     FM260500 30004KT P6SM SKC
     FM261000 08003KT P6SM SKC
     FM261600 10005KT P6SM SCT120 SCT250
     FM261900 25012KT P6SM SCT050 BKN100
     FM270200 26015G23KT P6SM VCSH SCT025 BKN050
     FM270400 26012KT 6SM -RA BR SCT025 BKN050=

USA.gov is the U.S. government's official web portal to all federal, state and local government web resources and services.